Time;durP1;ratioP1;P1;durP2;ratioP2;P2;SDS_P1;SDS_P2;PMS_P1;PMS_P2;Temp;Humidity;BMP_temperature;BMP_pressure;BME280_temperature;BME280_humidity;BME280_pressure;Samples;Min_cycle;Max_cycle;Signal;HPM_P1;HPM_P2
2023/08/15 00:01:04;;;;;;;27.20;7.30;;;;;;;;;;4934378;29;20424;-81
2023/08/15 00:03:29;;;;;;;19.13;7.30;;;;;;;;;;4932311;29;20067;-81
2023/08/15 00:05:54;;;;;;;23.35;7.60;;;;;;;;;;4915696;29;20575;-81
2023/08/15 00:08:20;;;;;;;16.92;6.90;;;;;;;;;;4931974;29;20056;-82
2023/08/15 00:10:46;;;;;;;18.35;7.22;;;;;;;;;;4933172;29;20043;-82
2023/08/15 00:13:11;;;;;;;21.38;6.68;;;;;;;;;;4932321;29;20090;-82
2023/08/15 00:15:36;;;;;;;22.40;6.60;;;;;;;;;;4916153;29;20123;-82
2023/08/15 00:18:02;;;;;;;16.50;6.50;;;;;;;;;;4932561;29;20039;-81
2023/08/15 00:20:28;;;;;;;17.40;6.40;;;;;;;;;;4931990;29;20051;-81
2023/08/15 00:22:53;;;;;;;15.45;5.72;;;;;;;;;;4933011;29;20803;-82
2023/08/15 00:25:18;;;;;;;18.50;5.72;;;;;;;;;;4932483;29;20412;-80
2023/08/15 00:27:44;;;;;;;17.27;5.43;;;;;;;;;;4931949;29;20044;-80
2023/08/15 00:30:11;;;;;;;15.75;5.45;;;;;;;;;;4931752;29;20040;-80
2023/08/15 00:32:36;;;;;;;20.58;5.63;;;;;;;;;;4932388;29;20420;-81
2023/08/15 00:35:05;;;;;;;14.93;5.20;;;;;;;;;;4931604;29;20127;-80
2023/08/15 00:37:34;;;;;;;14.15;6.18;;;;;;;;;;4931701;29;20130;-80
2023/08/15 00:40:00;;;;;;;19.35;5.80;;;;;;;;;;4932845;29;20110;-80
2023/08/15 00:42:26;;;;;;;12.48;5.90;;;;;;;;;;4931206;29;20044;-80
2023/08/15 00:44:51;;;;;;;20.80;5.97;;;;;;;;;;4932573;29;20518;-80
2023/08/15 00:47:19;;;;;;;21.60;6.15;;;;;;;;;;4931090;29;20468;-80
2023/08/15 00:49:45;;;;;;;20.40;6.15;;;;;;;;;;4932323;29;20043;-81
2023/08/15 00:52:13;;;;;;;14.05;5.07;;;;;;;;;;4931896;29;20067;-81
2023/08/15 00:54:42;;;;;;;11.98;4.55;;;;;;;;;;4932593;29;20050;-82
2023/08/15 00:57:07;;;;;;;14.27;5.72;;;;;;;;;;4929865;29;20086;-81
2023/08/15 00:59:33;;;;;;;10.65;5.40;;;;;;;;;;4932089;29;20504;-82
2023/08/15 01:01:59;;;;;;;15.18;5.88;;;;;;;;;;4927807;29;20105;-82
2023/08/15 01:04:25;;;;;;;13.15;5.47;;;;;;;;;;4932799;29;20052;-82
2023/08/15 01:06:51;;;;;;;17.33;5.65;;;;;;;;;;4936423;29;20070;-82
2023/08/15 01:09:16;;;;;;;14.15;5.95;;;;;;;;;;4935646;29;20592;-82
2023/08/15 01:12:11;;;;;;;19.60;5.95;;;;;;;;;;4935880;29;20123;-82
2023/08/15 01:15:06;;;;;;;20.33;6.55;;;;;;;;;;4926569;29;20210;-82
2023/08/15 01:17:43;;;;;;;15.75;6.43;;;;;;;;;;4918605;29;20078;-82
2023/08/15 01:20:14;;;;;;;21.02;6.82;;;;;;;;;;4931025;29;20082;-82
2023/08/15 01:22:43;;;;;;;16.15;6.10;;;;;;;;;;4936146;29;20079;-81
2023/08/15 01:25:09;;;;;;;21.23;6.97;;;;;;;;;;4935140;29;20048;-81
2023/08/15 01:27:35;;;;;;;21.60;7.40;;;;;;;;;;4935858;29;20531;-81
2023/08/15 01:30:01;;;;;;;17.50;6.85;;;;;;;;;;4935665;29;20052;-80
2023/08/15 01:32:36;;;;;;;17.73;6.68;;;;;;;;;;4934863;29;20044;-81
2023/08/15 01:35:07;;;;;;;13.38;6.72;;;;;;;;;;4935185;29;20071;-80
2023/08/15 01:37:36;;;;;;;18.63;6.35;;;;;;;;;;4933899;29;20430;-81
2023/08/15 01:40:04;;;;;;;21.63;6.70;;;;;;;;;;4934547;29;20067;-81
2023/08/15 01:42:31;;;;;;;20.23;6.80;;;;;;;;;;4933342;29;20048;-82
2023/08/15 01:44:58;;;;;;;18.40;6.85;;;;;;;;;;4935110;29;20059;-80
2023/08/15 01:47:24;;;;;;;22.90;6.65;;;;;;;;;;4936223;29;20126;-83
2023/08/15 01:49:49;;;;;;;22.15;6.55;;;;;;;;;;4935070;29;20036;-80
2023/08/15 01:52:15;;;;;;;19.17;6.47;;;;;;;;;;4934352;29;20518;-82
2023/08/15 01:54:40;;;;;;;24.48;6.97;;;;;;;;;;4934038;29;20050;-82
2023/08/15 01:57:06;;;;;;;15.40;7.13;;;;;;;;;;4933732;29;20043;-80
2023/08/15 01:59:31;;;;;;;19.42;6.95;;;;;;;;;;4941229;29;20063;-80
2023/08/15 02:01:56;;;;;;;15.77;6.70;;;;;;;;;;4934778;29;20040;-81
2023/08/15 02:04:22;;;;;;;18.70;7.28;;;;;;;;;;4933880;29;20052;-82
2023/08/15 02:06:47;;;;;;;15.27;7.15;;;;;;;;;;4934447;29;20135;-82
2023/08/15 02:09:13;;;;;;;21.35;7.22;;;;;;;;;;4933637;29;20052;-81
2023/08/15 02:11:38;;;;;;;16.00;6.43;;;;;;;;;;4930561;29;20047;-81
2023/08/15 02:14:03;;;;;;;16.85;7.00;;;;;;;;;;4933976;29;20040;-81
2023/08/15 02:16:29;;;;;;;15.10;6.53;;;;;;;;;;4934172;29;20123;-80
2023/08/15 02:18:55;;;;;;;20.48;6.28;;;;;;;;;;4934389;29;20042;-82
2023/08/15 02:21:20;;;;;;;16.70;5.97;;;;;;;;;;4933752;29;20090;-82
2023/08/15 02:23:45;;;;;;;18.00;5.72;;;;;;;;;;4933894;29;20052;-81
2023/08/15 02:26:11;;;;;;;18.25;6.20;;;;;;;;;;4933671;29;20408;-80
2023/08/15 02:28:36;;;;;;;14.65;5.93;;;;;;;;;;4934081;29;20059;-80
2023/08/15 02:31:04;;;;;;;13.80;4.85;;;;;;;;;;4933927;29;20102;-81
2023/08/15 02:33:30;;;;;;;15.48;5.38;;;;;;;;;;4933308;29;20071;-82
2023/08/15 02:35:55;;;;;;;11.77;5.18;;;;;;;;;;4934216;29;20142;-81
2023/08/15 02:38:21;;;;;;;19.35;5.93;;;;;;;;;;4932751;29;20528;-81
2023/08/15 02:40:48;;;;;;;19.25;6.05;;;;;;;;;;4930088;29;20146;-81
2023/08/15 02:43:13;;;;;;;16.25;5.90;;;;;;;;;;4928959;29;20051;-80
2023/08/15 02:45:38;;;;;;;12.85;5.95;;;;;;;;;;4933638;29;20518;-81
2023/08/15 02:48:04;;;;;;;14.73;4.85;;;;;;;;;;4933261;29;20132;-82
2023/08/15 02:50:29;;;;;;;15.32;5.10;;;;;;;;;;4926556;29;20535;-82
2023/08/15 02:52:55;;;;;;;14.43;5.43;;;;;;;;;;4933808;29;20046;-82
2023/08/15 02:55:20;;;;;;;19.50;5.32;;;;;;;;;;4932751;29;20131;-81
2023/08/15 02:57:46;;;;;;;12.45;5.50;;;;;;;;;;4933374;29;20158;-82
2023/08/15 03:00:12;;;;;;;14.02;6.10;;;;;;;;;;4933966;29;20619;-82
2023/08/15 03:02:39;;;;;;;20.65;6.03;;;;;;;;;;4933115;29;20047;-82
2023/08/15 03:05:04;;;;;;;15.43;5.80;;;;;;;;;;4934547;29;20043;-83
2023/08/15 03:07:29;;;;;;;11.80;5.97;;;;;;;;;;4916454;29;20125;-83
2023/08/15 03:09:55;;;;;;;10.88;5.82;;;;;;;;;;4934306;29;20501;-83
2023/08/15 03:12:20;;;;;;;16.83;6.18;;;;;;;;;;4933600;29;20043;-83
2023/08/15 03:14:46;;;;;;;12.90;6.00;;;;;;;;;;4934620;29;20071;-82
2023/08/15 03:17:11;;;;;;;19.13;5.68;;;;;;;;;;4933738;29;20428;-82
2023/08/15 03:19:37;;;;;;;15.40;5.75;;;;;;;;;;4916765;29;20183;-82
2023/08/15 03:22:06;;;;;;;17.15;5.75;;;;;;;;;;4952710;29;20699;-82
2023/08/15 03:24:31;;;;;;;15.05;5.85;;;;;;;;;;4945821;28;20123;-83
2023/08/15 03:26:57;;;;;;;15.98;5.65;;;;;;;;;;4934209;29;20168;-83
2023/08/15 03:29:23;;;;;;;13.77;5.63;;;;;;;;;;4933447;29;20504;-83
2023/08/15 03:31:48;;;;;;;17.85;5.72;;;;;;;;;;4934454;29;20050;-83
2023/08/15 03:34:13;;;;;;;16.85;5.32;;;;;;;;;;4933587;29;20118;-83
2023/08/15 03:36:39;;;;;;;14.70;5.40;;;;;;;;;;4939584;29;20123;-83
2023/08/15 03:39:04;;;;;;;14.07;4.85;;;;;;;;;;4952947;29;20040;-82
2023/08/15 03:41:30;;;;;;;12.50;4.93;;;;;;;;;;4953888;29;20106;-83
2023/08/15 03:43:55;;;;;;;17.60;7.10;;;;;;;;;;4953151;29;20043;-83
2023/08/15 03:46:20;;;;;;;18.35;7.85;;;;;;;;;;4934738;29;20058;-82
2023/08/15 03:48:46;;;;;;;17.60;7.10;;;;;;;;;;4953178;29;20066;-82
2023/08/15 03:51:11;;;;;;;14.98;6.47;;;;;;;;;;4952056;29;20122;-82
2023/08/15 03:53:37;;;;;;;19.08;9.57;;;;;;;;;;4952789;29;20074;-82
2023/08/15 03:56:02;;;;;;;21.95;8.45;;;;;;;;;;4936000;29;20579;-82
2023/08/15 03:58:27;;;;;;;16.90;6.95;;;;;;;;;;4940874;29;20394;-82
2023/08/15 04:00:53;;;;;;;15.32;5.95;;;;;;;;;;4936714;29;20082;-82
2023/08/15 04:03:18;;;;;;;12.55;5.88;;;;;;;;;;4933675;29;20095;-82
2023/08/15 04:05:45;;;;;;;13.02;5.25;;;;;;;;;;4933444;29;20046;-82
2023/08/15 04:08:10;;;;;;;15.23;4.78;;;;;;;;;;4933096;29;20074;-82
2023/08/15 04:10:39;;;;;;;24.77;5.75;;;;;;;;;;4916523;29;20071;-82
2023/08/15 04:13:09;;;;;;;18.00;5.55;;;;;;;;;;4932866;29;20035;-81
2023/08/15 04:15:35;;;;;;;13.63;5.60;;;;;;;;;;4933535;29;20123;-81
2023/08/15 04:18:04;;;;;;;11.63;4.47;;;;;;;;;;4933691;29;20047;-82
2023/08/15 04:20:30;;;;;;;12.98;4.15;;;;;;;;;;4932480;29;20043;-80
2023/08/15 04:22:55;;;;;;;16.05;3.88;;;;;;;;;;4933005;29;20035;-79
2023/08/15 04:25:21;;;;;;;13.85;4.22;;;;;;;;;;4951998;29;20392;-80
2023/08/15 04:27:46;;;;;;;53.20;5.22;;;;;;;;;;4946558;29;20067;-80
2023/08/15 04:30:12;;;;;;;50.50;5.90;;;;;;;;;;4932894;29;20039;-80
2023/08/15 04:32:37;;;;;;;328.00;10.43;;;;;;;;;;4933121;29;20401;-80
2023/08/15 04:35:03;;;;;;;313.98;9.73;;;;;;;;;;4933196;29;20571;-80
2023/08/15 04:37:29;;;;;;;361.95;10.82;;;;;;;;;;4932798;29;20043;-80
2023/08/15 04:39:54;;;;;;;219.18;8.70;;;;;;;;;;4938934;29;20416;-81
2023/08/15 04:42:20;;;;;;;323.52;10.13;;;;;;;;;;4951641;29;20435;-80
2023/08/15 04:44:46;;;;;;;236.10;8.70;;;;;;;;;;4952558;29;20039;-80
2023/08/15 04:47:11;;;;;;;233.60;9.23;;;;;;;;;;4951502;29;20568;-82
2023/08/15 04:49:36;;;;;;;264.48;8.82;;;;;;;;;;4952366;29;20043;-80
2023/08/15 04:52:02;;;;;;;325.23;9.40;;;;;;;;;;4917159;29;20115;-80
2023/08/15 04:54:27;;;;;;;236.10;8.30;;;;;;;;;;4896801;29;20048;-79
2023/08/15 04:56:53;;;;;;;276.35;9.35;;;;;;;;;;4914126;29;20064;-80
2023/08/15 04:59:18;;;;;;;393.63;11.27;;;;;;;;;;4939382;29;20127;-80
2023/08/15 05:01:44;;;;;;;192.82;8.15;;;;;;;;;;4915793;29;20095;-81
2023/08/15 05:04:10;;;;;;;104.75;6.97;;;;;;;;;;4932709;29;20048;-81
2023/08/15 05:06:36;;;;;;;81.10;6.25;;;;;;;;;;4932928;29;20595;-80
2023/08/15 05:09:01;;;;;;;43.55;5.55;;;;;;;;;;4933120;29;20130;-80
2023/08/15 05:11:26;;;;;;;11.77;4.80;;;;;;;;;;4932471;29;20119;-80
2023/08/15 05:13:52;;;;;;;7.45;4.18;;;;;;;;;;4932858;29;20548;-81
2023/08/15 05:16:17;;;;;;;9.13;4.28;;;;;;;;;;4932134;29;20520;-81
2023/08/15 05:18:42;;;;;;;7.90;4.10;;;;;;;;;;4933104;29;20040;-79
2023/08/15 05:21:08;;;;;;;6.22;3.42;;;;;;;;;;4932379;29;20127;-80
2023/08/15 05:23:33;;;;;;;6.55;4.05;;;;;;;;;;4933022;29;20477;-81
2023/08/15 05:25:58;;;;;;;5.78;3.10;;;;;;;;;;4933142;29;20046;-80
2023/08/15 05:28:24;;;;;;;9.85;3.50;;;;;;;;;;4932361;29;20395;-80
2023/08/15 05:30:49;;;;;;;11.98;3.90;;;;;;;;;;4932777;29;20040;-80
2023/08/15 05:33:15;;;;;;;8.80;3.28;;;;;;;;;;4931591;29;20098;-81
2023/08/15 05:35:40;;;;;;;9.43;3.85;;;;;;;;;;4932643;29;20047;-81
2023/08/15 05:38:05;;;;;;;8.20;3.83;;;;;;;;;;4914817;29;20044;-80
2023/08/15 05:40:33;;;;;;;7.30;3.40;;;;;;;;;;4932747;29;20436;-81
2023/08/15 05:42:58;;;;;;;9.13;3.53;;;;;;;;;;4919849;29;20043;-82
2023/08/15 05:45:24;;;;;;;9.27;3.80;;;;;;;;;;4931632;29;20055;-81
2023/08/15 05:47:49;;;;;;;10.43;4.30;;;;;;;;;;4915096;29;20648;-81
2023/08/15 05:50:15;;;;;;;7.85;4.05;;;;;;;;;;4935691;29;20078;-81
2023/08/15 05:52:40;;;;;;;10.55;4.25;;;;;;;;;;4951023;29;20264;-81
2023/08/15 05:55:06;;;;;;;13.90;4.80;;;;;;;;;;4952758;29;20198;-81
2023/08/15 05:57:31;;;;;;;8.82;4.50;;;;;;;;;;4937012;29;20044;-81
2023/08/15 05:59:57;;;;;;;10.32;5.10;;;;;;;;;;4946536;29;20131;-82
2023/08/15 06:02:22;;;;;;;10.15;5.35;;;;;;;;;;4934959;29;20044;-81
2023/08/15 06:04:47;;;;;;;12.02;5.40;;;;;;;;;;4936263;29;20532;-81
2023/08/15 06:07:13;;;;;;;12.75;5.25;;;;;;;;;;4935251;29;20130;-81
2023/08/15 06:09:38;;;;;;;12.45;5.45;;;;;;;;;;4936281;29;20056;-81
2023/08/15 06:12:04;;;;;;;13.32;5.90;;;;;;;;;;4950105;29;20107;-81
2023/08/15 06:14:30;;;;;;;16.75;5.55;;;;;;;;;;4935228;29;20572;-81
2023/08/15 06:16:56;;;;;;;12.63;5.55;;;;;;;;;;4935723;29;20055;-81
2023/08/15 06:19:21;;;;;;;14.43;5.32;;;;;;;;;;4935190;29;20055;-81
2023/08/15 06:21:46;;;;;;;19.95;5.78;;;;;;;;;;4935968;29;20050;-81
2023/08/15 06:24:13;;;;;;;11.18;5.43;;;;;;;;;;4917929;29;20508;-81
2023/08/15 06:26:39;;;;;;;12.70;5.40;;;;;;;;;;4949894;29;20103;-81
2023/08/15 06:29:05;;;;;;;10.75;5.15;;;;;;;;;;4917722;29;20461;-81
2023/08/15 06:31:31;;;;;;;13.68;5.50;;;;;;;;;;4937528;29;20504;-80
2023/08/15 06:33:57;;;;;;;12.77;5.05;;;;;;;;;;4935172;29;20063;-81
2023/08/15 06:36:22;;;;;;;13.30;4.78;;;;;;;;;;4934572;29;20048;-81
2023/08/15 06:38:49;;;;;;;10.85;4.35;;;;;;;;;;4935111;29;20081;-81
2023/08/15 06:41:14;;;;;;;12.30;4.38;;;;;;;;;;4935064;29;20112;-81
2023/08/15 06:43:40;;;;;;;16.70;4.38;;;;;;;;;;4935934;29;20048;-82
2023/08/15 06:46:05;;;;;;;9.45;3.80;;;;;;;;;;4953345;29;20043;-81
2023/08/15 06:48:30;;;;;;;11.90;4.43;;;;;;;;;;4953935;29;20036;-81
2023/08/15 06:50:56;;;;;;;12.05;4.18;;;;;;;;;;4937947;29;20074;-82
2023/08/15 06:53:22;;;;;;;8.68;3.70;;;;;;;;;;4916788;29;20044;-81
2023/08/15 06:55:49;;;;;;;11.18;3.47;;;;;;;;;;4935018;29;20047;-81
2023/08/15 06:58:14;;;;;;;13.43;3.58;;;;;;;;;;4935607;29;20039;-82
2023/08/15 07:00:41;;;;;;;12.18;3.38;;;;;;;;;;4940528;29;20416;-82
2023/08/15 07:03:07;;;;;;;15.05;3.65;;;;;;;;;;4934249;29;20082;-82
2023/08/15 07:05:32;;;;;;;11.20;4.60;;;;;;;;;;4917404;29;20450;-82
2023/08/15 07:07:59;;;;;;;13.98;4.30;;;;;;;;;;4944614;29;20039;-82
2023/08/15 07:10:25;;;;;;;8.55;4.07;;;;;;;;;;4953321;29;20101;-83
2023/08/15 07:12:50;;;;;;;11.05;4.15;;;;;;;;;;4937310;29;20535;-82
2023/08/15 07:15:15;;;;;;;11.95;4.30;;;;;;;;;;4917144;29;20048;-82
2023/08/15 07:17:41;;;;;;;15.60;4.55;;;;;;;;;;4933437;29;20126;-83
2023/08/15 07:20:08;;;;;;;9.75;4.22;;;;;;;;;;4923698;29;20083;-82
2023/08/15 07:22:34;;;;;;;12.70;4.70;;;;;;;;;;4927474;29;20043;-83
2023/08/15 07:25:00;;;;;;;13.50;4.75;;;;;;;;;;4926321;29;20058;-82
2023/08/15 07:27:25;;;;;;;11.65;4.60;;;;;;;;;;4920662;29;20382;-83
2023/08/15 07:29:51;;;;;;;8.27;3.83;;;;;;;;;;4923434;29;20147;-82
2023/08/15 07:32:16;;;;;;;10.40;4.50;;;;;;;;;;4915489;29;20059;-84
2023/08/15 07:34:42;;;;;;;12.80;3.83;;;;;;;;;;4927441;29;20118;-83
2023/08/15 07:37:07;;;;;;;13.13;3.33;;;;;;;;;;4926157;29;20036;-82
2023/08/15 07:39:32;;;;;;;7.93;2.75;;;;;;;;;;4923424;29;20134;-83
2023/08/15 07:41:58;;;;;;;9.25;2.80;;;;;;;;;;4910173;29;20524;-82
2023/08/15 07:44:25;;;;;;;10.10;2.05;;;;;;;;;;4926657;29;20817;-84
2023/08/15 07:46:51;;;;;;;8.43;1.77;;;;;;;;;;4927334;29;20055;-83
2023/08/15 07:49:16;;;;;;;11.10;2.47;;;;;;;;;;4925133;29;20095;-82
2023/08/15 07:51:42;;;;;;;7.53;2.15;;;;;;;;;;4916574;29;20097;-83
2023/08/15 07:54:07;;;;;;;8.07;1.63;;;;;;;;;;4926700;29;20110;-82
2023/08/15 07:56:33;;;;;;;7.20;1.52;;;;;;;;;;4926484;29;20039;-83
2023/08/15 07:58:59;;;;;;;8.35;1.67;;;;;;;;;;4925407;29;20043;-81
2023/08/15 08:01:24;;;;;;;11.50;1.75;;;;;;;;;;4929788;29;20043;-82
2023/08/15 08:03:50;;;;;;;6.43;1.60;;;;;;;;;;4924451;29;20052;-80
2023/08/15 08:06:15;;;;;;;5.60;1.58;;;;;;;;;;4919617;29;20047;-81
2023/08/15 08:08:41;;;;;;;5.97;1.25;;;;;;;;;;4923765;29;20710;-83
2023/08/15 08:11:07;;;;;;;4.20;1.00;;;;;;;;;;4921684;29;20055;-82
2023/08/15 08:13:32;;;;;;;3.58;1.27;;;;;;;;;;4925476;29;20420;-83
2023/08/15 08:15:58;;;;;;;6.45;1.35;;;;;;;;;;4925736;29;20103;-81
2023/08/15 08:18:23;;;;;;;4.72;1.20;;;;;;;;;;4925072;29;20868;-83
2023/08/15 08:20:49;;;;;;;9.13;1.75;;;;;;;;;;4921392;29;20115;-82
2023/08/15 08:23:15;;;;;;;5.07;1.40;;;;;;;;;;4924158;29;20134;-82
2023/08/15 08:25:41;;;;;;;5.13;1.20;;;;;;;;;;4925809;29;20127;-82
2023/08/15 08:28:06;;;;;;;5.70;1.42;;;;;;;;;;4922476;29;20075;-82
2023/08/15 08:30:32;;;;;;;6.70;1.48;;;;;;;;;;4925668;29;20050;-83
2023/08/15 08:32:58;;;;;;;8.07;1.40;;;;;;;;;;4921988;29;20536;-82
2023/08/15 08:35:23;;;;;;;5.68;1.35;;;;;;;;;;4925664;29;20047;-82
2023/08/15 08:37:49;;;;;;;5.93;1.30;;;;;;;;;;4916716;29;20048;-82
2023/08/15 08:40:17;;;;;;;5.93;1.20;;;;;;;;;;4925413;29;20150;-81
2023/08/15 08:42:43;;;;;;;5.03;1.50;;;;;;;;;;4925595;29;20102;-80
2023/08/15 08:45:10;;;;;;;3.45;0.95;;;;;;;;;;4925426;29;20040;-81
2023/08/15 08:47:39;;;;;;;4.53;1.23;;;;;;;;;;4908895;29;20484;-81
2023/08/15 08:50:08;;;;;;;5.38;1.20;;;;;;;;;;4922246;29;20373;-80
2023/08/15 08:52:35;;;;;;;8.35;1.70;;;;;;;;;;4923264;29;20050;-81
2023/08/15 08:55:01;;;;;;;6.78;1.30;;;;;;;;;;4925749;29;20508;-83
2023/08/15 08:57:29;;;;;;;9.18;1.35;;;;;;;;;;4924680;29;20047;-83
2023/08/15 08:59:56;;;;;;;5.82;1.20;;;;;;;;;;4926898;29;20122;-83
2023/08/15 09:02:22;;;;;;;5.30;1.13;;;;;;;;;;4922960;29;20052;-81
2023/08/15 09:04:48;;;;;;;9.15;1.58;;;;;;;;;;4925039;29;20118;-82
2023/08/15 09:07:15;;;;;;;6.82;1.35;;;;;;;;;;4925460;29;20489;-82
2023/08/15 09:09:40;;;;;;;4.70;1.23;;;;;;;;;;4922159;29;20078;-82
2023/08/15 09:12:06;;;;;;;10.77;1.50;;;;;;;;;;4926327;29;20854;-81
2023/08/15 09:14:31;;;;;;;4.53;1.15;;;;;;;;;;4929856;29;20397;-82
2023/08/15 09:16:57;;;;;;;6.60;1.30;;;;;;;;;;4926784;29;20063;-84
2023/08/15 09:19:22;;;;;;;5.80;1.30;;;;;;;;;;4929151;29;20054;-82
2023/08/15 09:21:48;;;;;;;4.60;1.27;;;;;;;;;;4931582;29;20052;-81
2023/08/15 09:24:13;;;;;;;3.90;1.13;;;;;;;;;;4918006;29;20093;-81
2023/08/15 09:26:40;;;;;;;4.70;1.05;;;;;;;;;;4933234;29;20043;-80
2023/08/15 09:29:05;;;;;;;2.53;1.05;;;;;;;;;;4934287;29;20046;-80
2023/08/15 09:31:31;;;;;;;4.43;1.23;;;;;;;;;;4932491;29;20074;-80
2023/08/15 09:33:57;;;;;;;5.90;1.20;;;;;;;;;;4934432;29;20075;-79
2023/08/15 09:36:23;;;;;;;5.82;1.05;;;;;;;;;;4932658;29;20528;-80
2023/08/15 09:38:51;;;;;;;3.20;1.10;;;;;;;;;;4930875;29;20116;-81
2023/08/15 09:41:17;;;;;;;3.85;1.30;;;;;;;;;;4933700;29;20051;-81
2023/08/15 09:43:53;;;;;;;3.85;0.90;;;;;;;;;;4934306;29;20050;-81
2023/08/15 09:46:19;;;;;;;3.72;1.00;;;;;;;;;;4932850;29;20039;-80
2023/08/15 09:48:47;;;;;;;3.75;1.15;;;;;;;;;;4931874;29;20040;-81
2023/08/15 09:51:15;;;;;;;4.03;1.00;;;;;;;;;;4935239;29;20054;-81
2023/08/15 09:53:43;;;;;;;3.50;0.80;;;;;;;;;;4933135;29;20043;-80
2023/08/15 09:56:08;;;;;;;4.32;1.10;;;;;;;;;;4931447;29;20047;-81
2023/08/15 09:58:34;;;;;;;8.10;1.48;;;;;;;;;;4935260;29;20039;-81
2023/08/15 10:01:04;;;;;;;4.10;1.10;;;;;;;;;;4934309;29;20048;-81
2023/08/15 10:03:35;;;;;;;12.50;1.30;;;;;;;;;;4929845;29;20043;-80
2023/08/15 10:06:02;;;;;;;5.82;1.10;;;;;;;;;;4934586;29;20040;-79
2023/08/15 10:08:28;;;;;;;5.20;1.00;;;;;;;;;;4932990;29;20194;-79
2023/08/15 10:10:57;;;;;;;5.13;1.30;;;;;;;;;;4933487;29;20130;-81
2023/08/15 10:13:31;;;;;;;5.63;1.20;;;;;;;;;;4931850;29;20043;-80
2023/08/15 10:16:01;;;;;;;6.22;1.25;;;;;;;;;;4936683;29;20047;-81
2023/08/15 10:18:26;;;;;;;5.88;1.40;;;;;;;;;;4933936;29;20049;-80
2023/08/15 10:20:56;;;;;;;4.95;1.67;;;;;;;;;;4934438;29;20043;-81
2023/08/15 10:23:32;;;;;;;6.78;1.25;;;;;;;;;;4918894;29;20044;-82
2023/08/15 10:25:58;;;;;;;3.33;1.10;;;;;;;;;;4917542;29;20055;-83
2023/08/15 10:28:27;;;;;;;4.20;0.90;;;;;;;;;;4932632;29;20047;-83
2023/08/15 10:30:53;;;;;;;6.00;1.05;;;;;;;;;;4933452;29;20531;-81
2023/08/15 10:33:22;;;;;;;3.05;0.70;;;;;;;;;;4928412;29;20048;-82
2023/08/15 10:36:07;;;;;;;6.15;0.80;;;;;;;;;;4930294;29;20072;-83
2023/08/15 10:38:39;;;;;;;3.80;0.95;;;;;;;;;;4929616;29;20073;-82
2023/08/15 10:41:17;;;;;;;4.65;1.00;;;;;;;;;;4933613;29;20040;-81
2023/08/15 10:43:52;;;;;;;;;;;;;;;;;;4934743;29;20040;-82
2023/08/15 10:46:25;;;;;;;4.93;1.40;;;;;;;;;;4933754;29;19970;-83
2023/08/15 10:48:54;;;;;;;4.18;0.88;;;;;;;;;;4933260;29;20051;-82
2023/08/15 10:51:27;;;;;;;2.85;0.82;;;;;;;;;;4931401;29;20609;-81
2023/08/15 10:53:56;;;;;;;4.07;0.98;;;;;;;;;;4916666;29;20040;-82
2023/08/15 10:56:28;;;;;;;3.70;1.00;;;;;;;;;;4932842;29;20621;-81
2023/08/15 10:58:54;;;;;;;5.47;1.42;;;;;;;;;;4926674;29;20067;-80
2023/08/15 11:01:24;;;;;;;5.20;1.60;;;;;;;;;;4926433;29;20051;-81
2023/08/15 11:03:52;;;;;;;4.38;1.10;;;;;;;;;;4933174;29;20043;-80
2023/08/15 11:06:18;;;;;;;3.88;1.10;;;;;;;;;;4932563;29;20043;-81
2023/08/15 11:08:56;;;;;;;3.30;1.02;;;;;;;;;;4932572;29;20645;-80
2023/08/15 11:11:22;;;;;;;7.25;1.20;;;;;;;;;;4931438;29;20051;-81
2023/08/15 11:13:49;;;;;;;3.53;0.85;;;;;;;;;;4932729;29;20503;-78
2023/08/15 11:16:20;;;;;;;5.03;1.38;;;;;;;;;;4932269;29;20040;-81
2023/08/15 11:18:46;;;;;;;6.28;0.98;;;;;;;;;;4931304;29;20047;-81
2023/08/15 11:21:15;;;;;;;5.30;1.20;;;;;;;;;;4931609;29;20098;-81
2023/08/15 11:23:41;;;;;;;5.78;1.38;;;;;;;;;;4933057;29;20058;-80
2023/08/15 11:26:08;;;;;;;3.45;1.05;;;;;;;;;;4915481;29;20099;-82
2023/08/15 11:28:35;;;;;;;5.07;1.30;;;;;;;;;;4932314;29;20190;-80
2023/08/15 11:31:07;;;;;;;5.32;1.25;;;;;;;;;;4932182;29;20036;-80
2023/08/15 11:33:33;;;;;;;4.25;1.10;;;;;;;;;;4931130;29;20044;-81
2023/08/15 11:36:06;;;;;;;2.63;0.88;;;;;;;;;;4932007;29;20550;-80
2023/08/15 11:38:33;;;;;;;4.40;1.00;;;;;;;;;;4930965;29;20523;-80
2023/08/15 11:40:59;;;;;;;3.45;1.10;;;;;;;;;;4932628;29;20049;-80
2023/08/15 11:43:25;;;;;;;5.43;1.42;;;;;;;;;;4932163;29;20059;-80
2023/08/15 11:45:51;;;;;;;4.32;0.90;;;;;;;;;;4931625;29;20535;-80
2023/08/15 11:48:17;;;;;;;2.50;0.88;;;;;;;;;;4914988;29;20056;-80
2023/08/15 11:50:42;;;;;;;2.85;0.80;;;;;;;;;;4930922;29;20040;-81
2023/08/15 11:53:09;;;;;;;2.28;0.70;;;;;;;;;;4931969;29;20050;-80
2023/08/15 11:55:38;;;;;;;2.08;0.80;;;;;;;;;;4932920;29;20050;-80
2023/08/15 11:58:21;;;;;;;2.70;1.17;;;;;;;;;;4937346;29;20460;-81
2023/08/15 12:00:46;;;;;;;2.15;0.77;;;;;;;;;;4935807;29;20054;-79
2023/08/15 12:03:11;;;;;;;5.53;1.00;;;;;;;;;;4913134;29;20036;-80
2023/08/15 12:05:37;;;;;;;6.32;0.88;;;;;;;;;;4913500;29;20044;-80
2023/08/15 12:08:03;;;;;;;9.75;1.42;;;;;;;;;;4920414;29;20119;-80
2023/08/15 12:10:30;;;;;;;4.18;0.90;;;;;;;;;;4931059;29;20127;-81
2023/08/15 12:12:55;;;;;;;3.17;1.13;;;;;;;;;;4932101;29;20044;-81
2023/08/15 12:15:21;;;;;;;2.78;0.85;;;;;;;;;;4930254;29;20138;-81
2023/08/15 12:17:46;;;;;;;2.30;0.90;;;;;;;;;;4930862;29;20791;-80
2023/08/15 12:20:12;;;;;;;6.57;0.90;;;;;;;;;;4926742;29;20037;-81
2023/08/15 12:22:39;;;;;;;2.35;0.73;;;;;;;;;;4919528;29;20143;-81
2023/08/15 12:25:08;;;;;;;2.25;0.68;;;;;;;;;;4923780;29;20043;-84
2023/08/15 12:27:39;;;;;;;4.25;0.98;;;;;;;;;;4931866;29;20048;-81
2023/08/15 12:30:05;;;;;;;4.78;0.80;;;;;;;;;;4929567;29;20087;-82
2023/08/15 12:32:30;;;;;;;1.95;0.77;;;;;;;;;;4925977;29;20055;-82
2023/08/15 12:34:56;;;;;;;3.55;0.70;;;;;;;;;;4930619;29;20480;-81
2023/08/15 12:37:24;;;;;;;2.53;0.73;;;;;;;;;;4923419;29;20131;-81
2023/08/15 12:39:51;;;;;;;2.40;0.70;;;;;;;;;;4925198;29;20035;-82
2023/08/15 12:42:16;;;;;;;3.33;0.80;;;;;;;;;;4929274;29;20614;-81
2023/08/15 12:44:42;;;;;;;4.50;0.90;;;;;;;;;;4927555;29;20043;-81
2023/08/15 12:47:09;;;;;;;2.33;0.80;;;;;;;;;;4929027;29;20079;-82
2023/08/15 12:49:35;;;;;;;2.17;0.60;;;;;;;;;;4931586;29;20127;-81
2023/08/15 12:52:01;;;;;;;2.10;0.90;;;;;;;;;;4929459;29;20059;-80
2023/08/15 12:54:26;;;;;;;3.75;0.90;;;;;;;;;;4929200;29;20110;-81
2023/08/15 12:56:51;;;;;;;4.40;0.70;;;;;;;;;;4925262;29;20051;-81
2023/08/15 12:59:17;;;;;;;2.28;0.90;;;;;;;;;;4919759;29;20070;-81
2023/08/15 13:01:43;;;;;;;3.47;0.52;;;;;;;;;;4931256;29;20052;-80
2023/08/15 13:04:12;;;;;;;2.83;0.60;;;;;;;;;;4930153;29;20092;-80
2023/08/15 13:06:40;;;;;;;3.55;0.60;;;;;;;;;;4932756;29;20048;-83
2023/08/15 13:09:11;;;;;;;5.00;0.85;;;;;;;;;;4965347;23;20108;-90
2023/08/15 13:11:37;;;;;;;2.70;0.70;;;;;;;;;;4896895;29;20048;-83
2023/08/15 13:14:03;;;;;;;4.45;0.68;;;;;;;;;;4896597;29;20040;-79
2023/08/15 13:16:29;;;;;;;2.47;0.70;;;;;;;;;;4896570;29;20049;-80
2023/08/15 13:18:54;;;;;;;3.28;0.85;;;;;;;;;;4897229;29;20501;-80
2023/08/15 13:21:19;;;;;;;4.15;0.70;;;;;;;;;;4897707;29;20044;-81
2023/08/15 13:23:45;;;;;;;3.13;0.70;;;;;;;;;;4882847;29;20092;-80
2023/08/15 13:26:10;;;;;;;1.77;0.60;;;;;;;;;;4895854;29;20418;-80
2023/08/15 13:28:36;;;;;;;3.05;0.80;;;;;;;;;;4895989;29;20040;-79
2023/08/15 13:31:01;;;;;;;3.47;1.10;;;;;;;;;;4896776;29;20577;-79
2023/08/15 13:33:26;;;;;;;3.55;1.25;;;;;;;;;;4897361;29;20047;-80
2023/08/15 13:35:52;;;;;;;3.00;0.80;;;;;;;;;;4898565;29;20060;-79
2023/08/15 13:38:17;;;;;;;5.80;1.10;;;;;;;;;;4879616;29;20041;-81
2023/08/15 13:40:43;;;;;;;5.68;0.80;;;;;;;;;;4897482;29;20047;-81
2023/08/15 13:43:08;;;;;;;3.70;0.80;;;;;;;;;;4881355;29;20100;-82
2023/08/15 13:45:33;;;;;;;3.45;0.77;;;;;;;;;;4916646;29;20076;-81
2023/08/15 13:48:00;;;;;;;3.05;0.70;;;;;;;;;;4897503;29;20728;-80
2023/08/15 13:50:26;;;;;;;6.57;2.47;;;;;;;;;;4895178;29;20048;-82
2023/08/15 13:52:51;;;;;;;6.80;1.17;;;;;;;;;;4895696;29;20052;-81
2023/08/15 13:55:16;;;;;;;3.53;0.80;;;;;;;;;;4895998;29;20037;-79
2023/08/15 13:57:42;;;;;;;2.45;0.60;;;;;;;;;;4896559;29;20041;-80
2023/08/15 14:00:08;;;;;;;2.35;0.52;;;;;;;;;;4897875;29;20052;-81
2023/08/15 14:02:34;;;;;;;6.82;0.88;;;;;;;;;;4896207;29;20124;-81
2023/08/15 14:04:59;;;;;;;1.88;0.70;;;;;;;;;;4895811;29;20112;-80
2023/08/15 14:07:24;;;;;;;1.83;0.70;;;;;;;;;;4896184;29;20052;-82
2023/08/15 14:09:50;;;;;;;0.52;0.30;;;;;;;;;;4894567;29;20044;-83
2023/08/15 14:12:16;;;;;;;1.48;0.50;;;;;;;;;;4883527;29;20156;-86
2023/08/15 14:14:41;;;;;;;2.67;0.50;;;;;;;;;;4890655;29;20577;-82
2023/08/15 14:17:07;;;;;;;2.28;0.70;;;;;;;;;;4890852;29;20048;-83
2023/08/15 14:19:32;;;;;;;2.72;0.63;;;;;;;;;;4890102;29;20047;-81
2023/08/15 14:21:58;;;;;;;3.08;0.75;;;;;;;;;;4890428;29;20501;-85
2023/08/15 14:24:23;;;;;;;7.07;0.70;;;;;;;;;;4890495;29;20444;-85
2023/08/15 14:26:49;;;;;;;2.92;0.57;;;;;;;;;;4873824;29;20052;-83
2023/08/15 14:29:15;;;;;;;1.88;0.80;;;;;;;;;;4890509;29;20052;-88
2023/08/15 14:31:40;;;;;;;1.80;0.60;;;;;;;;;;4890660;29;20053;-81